createdAt,value
2019-05-21T00:02:32.787Z,94.70
2019-05-21T00:07:52.483Z,94.70
2019-05-21T00:10:23.115Z,94.40
2019-05-21T00:12:53.639Z,94.40
2019-05-21T00:15:24.168Z,93.40
2019-05-21T00:17:54.596Z,93.80
2019-05-21T00:20:28.947Z,94.10
2019-05-21T00:22:58.986Z,94.10
2019-05-21T00:25:32.943Z,93.90
2019-05-21T00:28:23.131Z,94.00
2019-05-21T00:31:30.320Z,92.90
2019-05-21T00:34:44.029Z,93.30
2019-05-21T00:37:45.579Z,93.50
2019-05-21T00:40:52.193Z,93.50
2019-05-21T00:43:34.501Z,93.50
2019-05-21T00:46:05.027Z,93.60
2019-05-21T00:48:36.888Z,93.30
2019-05-21T00:51:07.314Z,93.70
2019-05-21T00:53:37.884Z,93.60
2019-05-21T00:56:08.463Z,93.80
2019-05-21T00:58:40.338Z,93.40
2019-05-21T01:01:10.854Z,95.00
2019-05-21T01:03:43.609Z,95.10
2019-05-21T01:06:19.513Z,94.80
2019-05-21T01:08:52.899Z,94.70
2019-05-21T01:11:23.425Z,94.60
2019-05-21T01:13:55.388Z,94.60
2019-05-21T01:16:25.918Z,94.60
2019-05-21T01:18:56.345Z,94.90
2019-05-21T01:21:28.881Z,94.90
2019-05-21T01:24:00.067Z,94.80
2019-05-21T01:26:30.392Z,94.80
2019-05-21T01:29:07.793Z,94.40
2019-05-21T01:31:38.163Z,94.70
2019-05-21T01:34:11.280Z,95.00
2019-05-21T01:36:40.636Z,95.10
2019-05-21T01:39:11.040Z,95.30
2019-05-21T01:41:41.396Z,95.40
2019-05-21T01:44:13.727Z,95.00
2019-05-21T01:46:45.628Z,95.10
2019-05-21T01:49:15.919Z,95.30
2019-05-21T01:52:03.320Z,95.20
2019-05-21T01:54:33.640Z,94.80
2019-05-21T01:57:15.551Z,95.40
2019-05-21T01:59:45.921Z,95.60
2019-05-21T02:02:16.242Z,95.50
2019-05-21T02:04:46.584Z,95.50
2019-05-21T02:07:17.317Z,95.60
2019-05-21T02:09:59.490Z,95.40
2019-05-21T02:12:29.888Z,95.80
2019-05-21T02:15:00.413Z,95.30
2019-05-21T02:17:30.963Z,95.20
2019-05-21T02:20:03.009Z,95.00
2019-05-21T02:22:33.541Z,95.00
2019-05-21T02:25:06.423Z,95.00
2019-05-21T02:27:36.952Z,94.80
2019-05-21T02:30:09.503Z,94.70
2019-05-21T02:32:40.265Z,95.00
2019-05-21T02:35:10.785Z,95.00
2019-05-21T02:37:41.116Z,95.00
2019-05-21T02:40:12.115Z,95.20
2019-05-21T02:42:42.583Z,95.20
2019-05-21T02:45:15.877Z,94.90
2019-05-21T02:47:46.438Z,94.70
2019-05-21T02:50:16.930Z,94.50
2019-05-21T02:52:48.904Z,94.90
2019-05-21T02:55:23.626Z,95.20
2019-05-21T02:57:55.589Z,95.20
2019-05-21T03:00:38.233Z,95.10
2019-05-21T03:03:07.297Z,95.20
2019-05-21T03:05:37.601Z,95.00
2019-05-21T03:08:07.946Z,95.00
2019-05-21T03:10:38.479Z,95.20
2019-05-21T03:13:09.005Z,95.20
2019-05-21T03:15:43.425Z,95.10
2019-05-21T03:18:13.747Z,95.20
2019-05-21T03:20:44.276Z,94.70
2019-05-21T03:23:14.811Z,94.90
2019-05-21T03:25:45.338Z,94.90
2019-05-21T03:28:15.880Z,95.10
2019-05-21T03:30:46.293Z,94.60
2019-05-21T03:33:16.822Z,94.70
2019-05-21T03:35:47.498Z,95.20
2019-05-21T03:38:17.983Z,94.80
2019-05-21T03:40:48.524Z,94.70
2019-05-21T03:43:19.145Z,94.90
2019-05-21T03:46:09.947Z,95.00
2019-05-21T03:48:40.421Z,95.10
2019-05-21T03:51:10.997Z,94.80
2019-05-21T03:53:47.783Z,95.10
2019-05-21T03:56:18.177Z,95.10
2019-05-21T03:58:48.745Z,95.20
2019-05-21T04:01:19.271Z,94.80
2019-05-21T04:03:49.900Z,95.00
2019-05-21T04:06:20.734Z,94.90
2019-05-21T04:08:51.264Z,95.10
2019-05-21T04:11:21.794Z,94.90
2019-05-21T04:13:57.035Z,95.00
2019-05-21T04:16:35.139Z,95.20
2019-05-21T04:19:07.219Z,95.50
2019-05-21T04:21:39.476Z,95.60
2019-05-21T04:24:09.901Z,95.50
2019-05-21T04:26:40.430Z,95.30
2019-05-21T04:29:12.495Z,95.30
2019-05-21T04:31:42.911Z,95.00
2019-05-21T04:34:20.849Z,95.40
2019-05-21T04:37:09.297Z,95.30
2019-05-21T04:39:34.060Z,95.10
2019-05-21T04:42:12.987Z,95.10
2019-05-21T04:44:43.414Z,95.00
2019-05-21T04:47:24.544Z,95.00
2019-05-21T04:49:57.904Z,95.10
2019-05-21T04:52:28.214Z,95.50
2019-05-21T04:57:50.064Z,94.90
2019-05-21T05:00:20.546Z,95.20
2019-05-21T05:02:52.649Z,95.00
2019-05-21T05:05:23.179Z,95.00
2019-05-21T05:08:10.191Z,95.10
2019-05-21T05:11:07.292Z,95.10
2019-05-21T05:13:40.441Z,95.00
2019-05-21T05:16:12.705Z,94.50
2019-05-21T05:18:44.156Z,94.60
2019-05-21T05:21:33.752Z,94.30
2019-05-21T05:24:04.363Z,93.90
2019-05-21T05:26:35.203Z,93.40
2019-05-21T05:29:05.727Z,93.40
2019-05-21T05:31:43.585Z,92.80
2019-05-21T05:34:13.943Z,92.90
2019-05-21T05:36:44.716Z,92.80
2019-05-21T05:39:15.071Z,92.80
2019-05-21T05:41:45.399Z,92.50
2019-05-21T05:44:15.788Z,92.80
2019-05-21T05:46:47.559Z,93.10
2019-05-21T05:49:19.520Z,93.20
2019-05-21T05:51:49.852Z,93.50
2019-05-21T05:54:20.853Z,93.30
2019-05-21T05:56:51.284Z,92.80
2019-05-21T05:59:21.704Z,92.70
2019-05-21T06:01:52.037Z,92.70
2019-05-21T06:04:22.696Z,92.70
2019-05-21T06:06:53.035Z,92.60
2019-05-21T06:09:25.487Z,92.20
2019-05-21T06:11:57.247Z,92.50
2019-05-21T06:14:27.582Z,92.20
2019-05-21T06:16:57.929Z,92.70
2019-05-21T06:19:28.269Z,92.50
2019-05-21T06:21:58.630Z,92.10
2019-05-21T06:24:30.953Z,92.30
2019-05-21T06:27:01.294Z,91.90
2019-05-21T06:29:31.762Z,92.10
2019-05-21T06:32:02.110Z,92.20
2019-05-21T06:34:32.412Z,92.00
2019-05-21T06:37:04.273Z,92.20
2019-05-21T06:39:34.625Z,91.90
2019-05-21T06:42:05.055Z,92.20
2019-05-21T06:44:35.325Z,91.90
2019-05-21T06:47:05.657Z,91.70
2019-05-21T06:49:36.055Z,91.40
2019-05-21T06:52:06.387Z,91.40
2019-05-21T06:54:41.141Z,91.10
2019-05-21T06:57:11.465Z,91.30
2019-05-21T06:59:41.773Z,90.70
2019-05-21T07:02:12.117Z,90.80
2019-05-21T07:04:43.931Z,90.90
2019-05-21T07:07:14.244Z,90.70
2019-05-21T07:09:44.546Z,90.40
2019-05-21T07:12:14.683Z,90.50
2019-05-21T07:14:44.974Z,90.80
2019-05-21T07:17:15.350Z,90.60
2019-05-21T07:19:57.820Z,90.30
2019-05-21T07:22:28.056Z,90.20
2019-05-21T07:24:58.275Z,90.50
2019-05-21T07:27:28.531Z,89.60
2019-05-21T07:29:58.667Z,90.00
2019-05-21T07:32:28.782Z,89.10
2019-05-21T07:34:58.967Z,88.10
2019-05-21T07:37:48.467Z,88.40
2019-05-21T07:40:39.774Z,88.70
2019-05-21T07:43:10.101Z,89.00
2019-05-21T07:45:40.538Z,87.40
2019-05-21T07:48:10.759Z,87.50
2019-05-21T07:50:42.595Z,87.00
2019-05-21T07:53:12.773Z,88.00
2019-05-21T07:55:42.843Z,87.80
2019-05-21T07:58:13.196Z,87.30
2019-05-21T08:00:43.316Z,86.40
2019-05-21T08:03:13.731Z,86.10
2019-05-21T08:06:04.745Z,86.30
2019-05-21T08:08:36.028Z,85.40
2019-05-21T08:11:06.429Z,86.60
2019-05-21T08:13:36.751Z,86.20
2019-05-21T08:16:07.083Z,85.00
2019-05-21T08:18:38.590Z,83.80
2019-05-21T08:21:08.863Z,84.90
2019-05-21T08:23:39.056Z,85.50
2019-05-21T08:26:09.315Z,85.20
2019-05-21T08:28:39.644Z,84.90
2019-05-21T08:31:10.756Z,85.40
2019-05-21T08:33:41.016Z,84.90
2019-05-21T08:36:11.224Z,84.00
2019-05-21T08:38:47.193Z,83.20
2019-05-21T08:41:17.710Z,83.50
2019-05-21T08:43:49.257Z,82.50
2019-05-21T08:46:19.391Z,81.60
2019-05-21T08:48:49.399Z,82.20
2019-05-21T08:51:21.151Z,82.00
2019-05-21T08:53:51.171Z,80.00
2019-05-21T08:56:21.368Z,79.40
2019-05-21T08:58:51.624Z,78.30
2019-05-21T09:01:22.188Z,78.10
2019-05-21T09:03:52.514Z,78.00
2019-05-21T09:06:23.045Z,77.70
2019-05-21T09:08:53.240Z,76.90
2019-05-21T09:11:23.813Z,77.80
2019-05-21T09:13:54.030Z,75.80
2019-05-21T09:16:24.225Z,77.10
2019-05-21T09:18:54.584Z,76.30
2019-05-21T09:21:25.973Z,75.90
2019-05-21T09:23:57.394Z,77.10
2019-05-21T09:26:27.913Z,77.20
2019-05-21T09:28:58.146Z,76.30
2019-05-21T09:31:29.878Z,75.30
2019-05-21T09:34:01.535Z,75.70
2019-05-21T09:36:31.793Z,76.50
2019-05-21T09:39:01.989Z,75.30
2019-05-21T09:41:32.659Z,75.50
2019-05-21T09:44:04.166Z,75.50
2019-05-21T09:46:34.363Z,74.50
2019-05-21T09:49:04.533Z,73.50
2019-05-21T09:51:34.984Z,74.60
2019-05-21T09:54:08.801Z,74.10
2019-05-21T09:56:39.740Z,76.30
2019-05-21T09:59:21.599Z,75.80
2019-05-21T10:02:00.974Z,75.60
2019-05-21T10:04:35.283Z,74.70
2019-05-21T10:07:09.247Z,76.50
2019-05-21T10:09:40.075Z,75.10
2019-05-21T10:12:12.478Z,76.00
2019-05-21T10:14:42.622Z,75.70
2019-05-21T10:17:12.819Z,75.40
2019-05-21T10:19:43.221Z,74.60
2019-05-21T10:22:16.373Z,76.20
2019-05-21T10:24:47.183Z,74.80
2019-05-21T10:27:17.579Z,74.70
2019-05-21T10:29:47.737Z,77.20
2019-05-21T10:32:18.107Z,71.90
2019-05-21T10:34:50.157Z,72.90
2019-05-21T10:37:20.845Z,71.60
2019-05-21T10:39:51.160Z,72.40
2019-05-21T10:42:21.633Z,69.60
2019-05-21T10:44:53.528Z,68.20
2019-05-21T10:47:29.684Z,69.70
2019-05-21T10:50:00.011Z,69.00
2019-05-21T10:52:30.927Z,69.30
2019-05-21T10:55:01.485Z,70.10
2019-05-21T10:57:33.377Z,69.70
2019-05-21T11:00:06.806Z,69.30
2019-05-21T11:02:38.589Z,67.60
2019-05-21T11:05:10.770Z,64.60
2019-05-21T11:07:41.211Z,65.60
2019-05-21T11:10:12.329Z,65.90
2019-05-21T11:12:42.414Z,65.80
2019-05-21T11:15:13.234Z,63.90
2019-05-21T11:17:53.729Z,64.40
2019-05-21T11:20:15.774Z,63.90
2019-05-21T11:22:45.857Z,63.60
2019-05-21T11:25:16.062Z,65.40
2019-05-21T11:27:48.098Z,64.20
2019-05-21T11:30:18.514Z,60.70
2019-05-21T11:32:49.006Z,63.70
2019-05-21T11:35:20.710Z,59.70
2019-05-21T11:37:50.953Z,63.30
2019-05-21T11:40:23.230Z,62.30
2019-05-21T11:42:53.460Z,62.60
2019-05-21T11:45:32.298Z,62.00
2019-05-21T11:47:55.606Z,63.20
2019-05-21T11:50:25.867Z,61.20
2019-05-21T11:52:58.098Z,61.40
2019-05-21T11:55:28.365Z,61.20
2019-05-21T11:57:58.652Z,61.90
2019-05-21T12:00:29.356Z,61.50
2019-05-21T12:02:59.575Z,60.70
2019-05-21T12:05:29.902Z,60.50
2019-05-21T12:08:00.064Z,60.40
2019-05-21T12:10:30.294Z,60.40
2019-05-21T12:13:00.475Z,62.50
2019-05-21T12:15:30.606Z,59.80
2019-05-21T12:18:00.767Z,59.90
2019-05-21T12:20:36.589Z,60.40
2019-05-21T12:23:09.964Z,60.10
2019-05-21T12:25:40.170Z,60.00
2019-05-21T12:28:11.274Z,62.40
2019-05-21T12:30:41.905Z,61.20
2019-05-21T12:33:12.408Z,61.70
2019-05-21T12:35:42.568Z,59.80
2019-05-21T12:38:12.711Z,58.60
2019-05-21T12:40:43.011Z,58.00
2019-05-21T12:43:13.223Z,57.60
2019-05-21T12:45:43.615Z,57.80
2019-05-21T12:48:13.902Z,55.30
2019-05-21T12:50:44.038Z,55.30
2019-05-21T12:53:16.521Z,53.80
2019-05-21T12:55:46.048Z,54.20
2019-05-21T12:58:16.229Z,54.10
2019-05-21T13:00:46.580Z,54.90
2019-05-21T13:03:16.785Z,55.50
2019-05-21T13:05:47.044Z,54.20
2019-05-21T13:08:17.098Z,56.30
2019-05-21T13:10:47.643Z,55.00
2019-05-21T13:13:18.278Z,55.30
2019-05-21T13:15:49.934Z,54.40
2019-05-21T13:18:21.332Z,54.10
2019-05-21T13:20:51.476Z,54.90
2019-05-21T13:23:21.549Z,54.10
2019-05-21T13:25:51.635Z,54.30
2019-05-21T13:28:21.692Z,52.60
2019-05-21T13:30:51.987Z,52.70
2019-05-21T13:33:22.824Z,53.00
2019-05-21T13:35:53.065Z,52.70
2019-05-21T13:38:23.249Z,52.60
2019-05-21T13:40:54.044Z,54.30
2019-05-21T13:43:25.814Z,55.20
2019-05-21T13:45:59.122Z,53.90
2019-05-21T13:48:28.363Z,54.90
2019-05-21T13:50:59.391Z,53.20
2019-05-21T13:53:29.841Z,53.40
2019-05-21T13:56:01.730Z,54.20
2019-05-21T13:58:32.887Z,52.70
2019-05-21T14:01:06.427Z,54.50
2019-05-21T14:03:36.582Z,54.10
2019-05-21T14:06:06.831Z,54.00
2019-05-21T14:08:37.345Z,52.40
2019-05-21T14:11:07.629Z,53.00
2019-05-21T14:13:37.781Z,52.70
2019-05-21T14:16:08.346Z,56.00
2019-05-21T14:18:38.749Z,58.00
2019-05-21T14:21:09.325Z,58.50
2019-05-21T14:23:39.543Z,59.70
2019-05-21T14:26:09.612Z,61.40
2019-05-21T14:28:39.866Z,63.00
2019-05-21T14:31:10.045Z,63.50
2019-05-21T14:33:40.277Z,63.40
2019-05-21T14:36:10.471Z,64.50
2019-05-21T14:38:40.707Z,65.30
2019-05-21T14:41:11.061Z,65.60
2019-05-21T14:43:42.639Z,65.40
2019-05-21T14:46:14.388Z,65.40
2019-05-21T14:48:45.742Z,65.30
2019-05-21T14:51:15.850Z,65.60
2019-05-21T14:53:46.459Z,64.70
2019-05-21T14:56:17.043Z,63.90
2019-05-21T14:58:51.956Z,64.60
2019-05-21T15:01:23.397Z,63.90
2019-05-21T15:03:54.054Z,64.40
2019-05-21T15:06:24.289Z,64.30
2019-05-21T15:08:54.449Z,64.90
2019-05-21T15:11:24.528Z,64.80
2019-05-21T15:13:55.163Z,64.10
2019-05-21T15:16:25.399Z,62.80
2019-05-21T15:18:55.932Z,62.40
2019-05-21T15:21:45.373Z,62.80
2019-05-21T15:24:15.871Z,62.80
2019-05-21T15:26:46.337Z,61.90
2019-05-21T15:29:17.890Z,62.70
2019-05-21T15:31:48.223Z,62.00
2019-05-21T15:34:18.375Z,61.90
2019-05-21T15:36:48.583Z,62.90
2019-05-21T15:39:18.715Z,62.00
2019-05-21T15:41:48.964Z,62.90
2019-05-21T15:44:22.001Z,64.30
2019-05-21T15:46:52.250Z,64.90
2019-05-21T15:49:34.967Z,65.40
2019-05-21T15:51:54.054Z,64.50
2019-05-21T15:54:26.110Z,63.50
2019-05-21T15:56:56.289Z,64.30
2019-05-21T15:59:27.438Z,65.30
2019-05-21T16:09:12.633Z,65.80
2019-05-21T16:11:49.577Z,65.60
2019-05-21T16:14:23.811Z,65.00
2019-05-21T16:16:54.399Z,65.60
2019-05-21T16:22:23.898Z,66.20
2019-05-21T16:25:02.527Z,67.70
2019-05-21T16:27:34.431Z,67.60
2019-05-21T16:30:10.070Z,67.50
2019-05-21T16:43:53.969Z,70.10
2019-05-21T16:51:27.569Z,70.50
2019-05-21T16:54:21.731Z,69.80
2019-05-21T16:57:13.991Z,70.30
2019-05-21T17:06:26.197Z,72.00
2019-05-21T17:08:59.322Z,71.30
2019-05-21T17:11:30.644Z,71.00
2019-05-21T17:14:00.878Z,71.10
2019-05-21T17:16:31.153Z,71.10
2019-05-21T17:19:01.454Z,71.40
2019-05-21T17:21:33.071Z,72.00
2019-05-21T17:24:11.855Z,72.50
2019-05-21T17:26:42.984Z,72.50
2019-05-21T17:29:13.481Z,72.90
2019-05-21T17:31:43.707Z,73.30
2019-05-21T17:34:13.930Z,73.70
2019-05-21T17:36:44.056Z,73.10
2019-05-21T17:39:14.341Z,73.80
2019-05-21T17:41:44.553Z,74.90
2019-05-21T17:44:16.269Z,75.10
2019-05-21T17:46:46.812Z,75.00
2019-05-21T17:49:17.674Z,74.80
2019-05-21T17:51:47.941Z,75.10
2019-05-21T17:54:19.218Z,75.00
2019-05-21T17:56:49.805Z,75.00
2019-05-21T17:59:20.577Z,75.70
2019-05-21T18:01:52.637Z,75.70
2019-05-21T18:04:26.037Z,76.00
2019-05-21T18:06:55.905Z,76.00
2019-05-21T18:09:26.949Z,76.20
2019-05-21T18:11:58.135Z,76.40
2019-05-21T18:14:29.714Z,76.10
2019-05-21T18:17:00.134Z,76.40
2019-05-21T18:19:30.963Z,76.40
2019-05-21T18:22:01.724Z,76.40
2019-05-21T18:24:34.506Z,75.70
2019-05-21T18:27:08.334Z,75.60
2019-05-21T18:29:39.307Z,76.30
2019-05-21T18:32:09.898Z,76.30
2019-05-21T18:34:40.426Z,76.50
2019-05-21T18:37:11.057Z,76.60
2019-05-21T18:39:41.314Z,76.30
2019-05-21T18:42:21.903Z,76.40
2019-05-21T18:44:43.813Z,76.50
2019-05-21T18:47:14.312Z,77.00
2019-05-21T18:49:46.381Z,77.50
2019-05-21T18:52:16.605Z,77.20
2019-05-21T18:54:48.144Z,76.70
2019-05-21T18:57:18.493Z,76.70
2019-05-21T18:59:49.462Z,77.40
2019-05-21T19:02:20.866Z,78.50
2019-05-21T19:04:53.564Z,78.70
2019-05-21T19:07:25.648Z,78.70
2019-05-21T19:10:00.361Z,79.20
2019-05-21T19:12:38.090Z,79.80
2019-05-21T19:15:06.075Z,80.70
2019-05-21T19:17:36.771Z,80.80
2019-05-21T19:20:10.866Z,83.40
2019-05-21T19:22:41.082Z,83.40
2019-05-21T19:25:12.971Z,84.40
2019-05-21T19:27:44.936Z,85.00
2019-05-21T19:30:17.085Z,85.60
2019-05-21T19:32:47.947Z,84.90
2019-05-21T19:35:18.589Z,85.10
2019-05-21T19:37:48.884Z,86.60
2019-05-21T19:40:20.328Z,86.90
2019-05-21T19:42:55.004Z,87.00
2019-05-21T19:45:22.535Z,87.50
2019-05-21T19:48:12.539Z,86.70
2019-05-21T19:50:44.428Z,87.70
2019-05-21T19:53:14.881Z,89.10
2019-05-21T19:55:48.331Z,88.30
2019-05-21T19:58:20.300Z,88.30
2019-05-21T20:00:52.452Z,89.70
2019-05-21T20:03:24.923Z,89.80
2019-05-21T20:05:58.994Z,89.90
2019-05-21T20:08:29.619Z,90.60
2019-05-21T20:11:01.756Z,90.40
2019-05-21T20:13:33.064Z,90.20
2019-05-21T20:16:05.508Z,91.10
2019-05-21T20:18:40.679Z,91.50
2019-05-21T20:21:15.439Z,91.60
2019-05-21T20:24:05.675Z,91.80
2019-05-21T20:26:36.458Z,92.30
2019-05-21T20:35:39.603Z,92.70
2019-05-21T20:38:10.794Z,92.10
2019-05-21T20:40:45.166Z,91.90
2019-05-21T20:43:15.604Z,91.50
2019-05-21T20:45:48.566Z,91.40
2019-05-21T20:48:19.507Z,91.30
2019-05-21T20:50:50.078Z,91.80
2019-05-21T20:53:20.931Z,91.90
2019-05-21T20:55:53.960Z,91.20
2019-05-21T20:58:30.301Z,91.40
2019-05-21T21:01:08.105Z,91.20
2019-05-21T21:03:45.401Z,91.40
2019-05-21T21:06:15.750Z,91.50
2019-05-21T21:08:46.175Z,91.80
2019-05-21T21:11:19.100Z,92.10
2019-05-21T21:13:49.791Z,91.90
2019-05-21T21:16:20.626Z,92.30
2019-05-21T21:18:51.391Z,92.60
2019-05-21T21:21:22.509Z,92.90
2019-05-21T21:23:56.488Z,92.80
2019-05-21T21:26:27.925Z,93.30
2019-05-21T21:28:58.180Z,92.90
2019-05-21T21:31:28.481Z,92.60
2019-05-21T21:34:21.921Z,92.70
2019-05-21T21:36:53.303Z,93.40
2019-05-21T21:39:25.746Z,93.40
2019-05-21T21:41:56.376Z,93.30
2019-05-21T21:44:33.870Z,92.90
2019-05-21T21:46:58.864Z,92.90
2019-05-21T21:49:31.267Z,93.60
2019-05-21T21:52:02.107Z,92.90
2019-05-21T21:54:32.454Z,92.80
2019-05-21T21:57:04.749Z,92.80
2019-05-21T21:59:34.999Z,93.10
2019-05-21T22:02:17.423Z,92.80
2019-05-21T22:04:49.270Z,92.80
2019-05-21T22:07:21.171Z,93.20
2019-05-21T22:09:51.754Z,93.10
2019-05-21T22:12:22.292Z,93.10
2019-05-21T22:14:55.823Z,93.00
2019-05-21T22:17:25.844Z,93.30
2019-05-21T22:19:56.505Z,93.30
2019-05-21T22:22:27.046Z,93.30
2019-05-21T22:24:58.183Z,93.40
2019-05-21T22:27:38.457Z,93.60
2019-05-21T22:30:10.571Z,93.40
2019-05-21T22:32:40.981Z,93.60
2019-05-21T22:35:11.419Z,93.50
2019-05-21T22:37:41.840Z,93.70
2019-05-21T22:40:14.283Z,93.80
2019-05-21T22:42:44.604Z,93.90
2019-05-21T22:45:15.445Z,94.10
2019-05-21T22:47:51.687Z,94.20
2019-05-21T22:50:23.564Z,94.60
2019-05-21T22:52:53.944Z,94.80
2019-05-21T22:55:26.005Z,94.80
2019-05-21T22:57:56.378Z,94.50
2019-05-21T23:00:26.686Z,94.50
2019-05-21T23:02:57.200Z,94.30
2019-05-21T23:05:28.350Z,94.10
2019-05-21T23:08:00.448Z,94.10
2019-05-21T23:10:32.659Z,94.20
2019-05-21T23:13:05.069Z,94.40
2019-05-21T23:15:35.481Z,94.60
2019-05-21T23:18:10.788Z,94.60
2019-05-21T23:20:44.252Z,94.80
2019-05-21T23:23:16.643Z,95.20
2019-05-21T23:25:48.789Z,95.00
2019-05-21T23:28:19.604Z,95.40
2019-05-21T23:30:50.627Z,94.40
2019-05-21T23:33:21.666Z,94.20
2019-05-21T23:35:53.791Z,94.10
2019-05-21T23:38:25.347Z,94.70
2019-05-21T23:40:56.190Z,94.40
2019-05-21T23:43:27.921Z,95.00
2019-05-21T23:45:58.725Z,94.50
2019-05-21T23:48:29.091Z,94.30
2019-05-21T23:50:59.664Z,94.40
2019-05-21T23:53:30.134Z,94.60
2019-05-21T23:56:00.435Z,95.00
2019-05-21T23:58:32.363Z,95.10
